KBCE/BCE METAR and TAF weather

Enter ICAO airport designator
Station Type Date Time Source
KBCE METAR 2019/12/06 03:53 UTC NOAA

KBCE 060353Z AUTO 26008KT 10SM CLR M09/M11 A3028 RMK AO2 SLP256 I1000 T10891106


Station Type Date Time Source
KBCE Decoded METAR 2019/12/06 03:53 UTC NOAA

BRYCE CANYON AIRPORT, UT, United States (KBCE) 37-42N 112-09W 2312M
Dec 05, 2019 - 10:53 PM EST / 2019.12.06 0353 UTC
Wind: from the W (260 degrees) at 9 MPH (8 KT):0
Visibility: 10 mile(s):0
Sky conditions: clear
Temperature: 16.0 F (-8.9 C)
Windchill: 5 F (-15 C):1
Dew Point: 12.9 F (-10.6 C)
Relative Humidity: 87%
Pressure (altimeter): 30.28 in. Hg (1025 hPa)
ob: KBCE 060353Z AUTO 26008KT 10SM CLR M09/M11 A3028 RMK AO2 SLP256 I1000 T10891106
cycle: 4

Station Type Date Time Source
KBCE TAF 2019/12/06 02:57 UTC NOAA

TAF
AMD KBCE 060153Z 0602/0624 27007KT P6SM SCT020
FM060600 27005KT P6SM FEW020 SCT120 BKN250
FM061700 15007KT P6SM BKN250

Example: see airport list